Time;durP1;ratioP1;P1;durP2;ratioP2;P2;SDS_P1;SDS_P2;PMS_P1;PMS_P2;Temp;Humidity;BMP_temperature;BMP_pressure;BME280_temperature;BME280_humidity;BME280_pressure;Samples;Min_cycle;Max_cycle;Signal;HPM_P1;HPM_P2
2022/06/02 00:00:22;;;;;;;16.83;12.95;;;;;;;18.22;nan;100466.06;5106674;28;20397;-69
2022/06/02 00:02:56;;;;;;;17.40;12.73;;;;;;;18.21;nan;100488.44;5112006;28;20047;-68
2022/06/02 00:05:28;;;;;;;20.35;13.50;;;;;;;;;;5112596;28;20036;-69
2022/06/02 00:08:12;;;;;;;21.52;13.07;;;;;;;18.17;nan;100491.91;5110830;28;20077;-69
2022/06/02 00:10:49;;;;;;;21.60;12.98;;;;;;;18.16;nan;100498.31;5112618;28;20027;-68
2022/06/02 00:13:41;;;;;;;20.73;13.43;;;;;;;18.09;nan;100497.81;5109820;28;20036;-69
2022/06/02 00:16:14;;;;;;;15.98;11.88;;;;;;;18.12;nan;100491.94;5094270;28;20056;-69
2022/06/02 00:18:49;;;;;;;21.63;11.63;;;;;;;18.05;nan;100494.88;5112348;28;20645;-69
2022/06/02 00:21:47;;;;;;;19.60;11.50;;;;;;;17.98;nan;100473.88;5112782;28;20144;-68
2022/06/02 00:24:28;;;;;;;18.25;11.65;;;;;;;17.87;nan;100485.63;5110953;28;20040;-68
2022/06/02 00:26:59;;;;;;;17.98;11.13;;;;;;;17.85;nan;100469.13;5110220;28;20115;-69
2022/06/02 00:29:30;;;;;;;27.92;12.75;;;;;;;17.85;nan;100466.44;5112650;28;20078;-68
2022/06/02 00:32:04;;;;;;;20.67;12.50;;;;;;;17.83;nan;100498.69;5112979;28;20039;-69
2022/06/02 00:34:42;;;;;;;25.45;11.98;;;;;;;17.79;nan;100484.31;5113690;28;20039;-72
2022/06/02 00:37:44;;;;;;;20.35;12.77;;;;;;;17.81;nan;100500.03;5110747;28;20042;-73
2022/06/02 00:40:12;;;;;;;19.95;11.93;;;;;;;17.74;nan;100526.94;5099593;28;20096;-71
2022/06/02 00:42:57;;;;;;;19.60;12.65;;;;;;;17.77;nan;100477.66;5094299;28;20020;-69
2022/06/02 00:45:24;;;;;;;17.02;12.27;;;;;;;17.73;nan;100495.22;5109008;28;20085;-68
2022/06/02 00:47:52;;;;;;;23.67;13.30;;;;;;;;;;5088922;28;20060;-69
2022/06/02 00:50:30;;;;;;;22.95;13.15;;;;;;;;;;5111403;28;20066;-68
2022/06/02 00:53:20;;;;;;;18.33;12.52;;;;;;;;;;5110845;28;20109;-69
2022/06/02 00:58:50;;;;;;;17.90;12.18;;;;;;;17.62;nan;100467.81;5111573;28;20761;-68
2022/06/02 01:01:20;;;;;;;23.15;11.77;;;;;;;17.57;nan;100459.84;5112363;28;20032;-67
2022/06/02 01:03:47;;;;;;;23.35;11.35;;;;;;;;;;5110420;28;20051;-68
2022/06/02 01:06:37;;;;;;;17.23;11.82;;;;;;;17.54;nan;100492.34;5109493;28;20027;-68
2022/06/02 01:09:24;;;;;;;19.65;11.77;;;;;;;17.52;nan;100487.28;5088544;28;20032;-68
2022/06/02 01:11:58;;;;;;;21.98;11.95;;;;;;;;;;5110703;28;20039;-68
2022/06/02 01:14:24;;;;;;;14.68;10.68;;;;;;;;;;5088763;28;20039;-68
2022/06/02 01:17:01;;;;;;;18.37;11.03;;;;;;;;;;5111152;28;20027;-71
2022/06/02 01:19:46;;;;;;;15.98;10.90;;;;;;;;;;5109774;28;20043;-69
2022/06/02 01:22:18;;;;;;;18.98;10.68;;;;;;;;;;5107566;28;20059;-68
2022/06/02 01:24:44;;;;;;;16.23;11.00;;;;;;;;;;5109875;28;20488;-65
2022/06/02 01:27:10;;;;;;;20.65;11.73;;;;;;;;;;5089808;28;20046;-68
2022/06/02 01:29:38;;;;;;;20.67;11.27;;;;;;;;;;5093572;28;20114;-69
2022/06/02 01:32:12;;;;;;;19.75;11.02;;;;;;;17.28;nan;100472.94;5110585;28;20481;-69
2022/06/02 01:34:37;;;;;;;21.08;11.30;;;;;;;;;;5111067;28;20044;-70
2022/06/02 01:37:21;;;;;;;21.27;11.60;;;;;;;;;;5109942;28;20043;-69
2022/06/02 01:39:46;;;;;;;15.65;11.07;;;;;;;;;;5108774;28;20180;-69
2022/06/02 01:42:12;;;;;;;21.10;10.53;;;;;;;;;;5110047;28;20482;-69
2022/06/02 01:44:55;;;;;;;20.60;11.33;;;;;;;;;;5110729;28;20035;-69
2022/06/02 01:47:38;;;;;;;21.02;10.63;;;;;;;;;;5109915;28;20039;-68
2022/06/02 01:50:06;;;;;;;19.30;10.77;;;;;;;;;;5111223;28;20436;-68
2022/06/02 01:52:49;;;;;;;17.88;10.48;;;;;;;;;;5110627;28;20044;-68
2022/06/02 01:55:22;;;;;;;19.90;11.57;;;;;;;;;;5108962;28;20032;-69
2022/06/02 01:57:47;;;;;;;19.60;10.32;;;;;;;;;;5083196;28;20040;-69
2022/06/02 02:00:14;;;;;;;22.17;10.30;;;;;;;;;;5107641;28;20097;-70
2022/06/02 02:02:51;;;;;;;15.55;10.75;;;;;;;;;;5109266;28;20469;-69
2022/06/02 02:05:19;;;;;;;22.10;10.93;;;;;;;;;;5109012;28;20389;-68
2022/06/02 02:07:51;;;;;;;21.95;11.13;;;;;;;;;;5109679;28;20142;-69
2022/06/02 02:10:16;;;;;;;21.48;10.38;;;;;;;;;;5091957;28;20784;-70
2022/06/02 02:12:41;;;;;;;29.23;11.77;;;;;;;;;;5109700;28;20032;-69
2022/06/02 02:15:12;;;;;;;21.57;11.60;;;;;;;;;;5083418;28;20039;-68
2022/06/02 02:17:37;;;;;;;20.95;11.18;;;;;;;;;;5111038;28;20768;-69
2022/06/02 02:20:12;;;;;;;17.00;10.70;;;;;;;;;;5110772;28;20027;-68
2022/06/02 02:22:43;;;;;;;20.48;11.02;;;;;;;;;;5111385;28;20046;-74
2022/06/02 02:25:12;;;;;;;16.42;11.90;;;;;;;;;;5091610;28;20054;-73
2022/06/02 02:28:02;;;;;;;25.65;11.27;;;;;;;;;;5083161;28;20023;-69
2022/06/02 02:30:42;;;;;;;22.25;11.35;;;;;;;;;;5108195;28;20048;-67
2022/06/02 02:33:46;;;;;;;21.88;11.60;;;;;;;;;;5109365;28;20465;-69
2022/06/02 02:36:30;;;;;;;18.90;10.57;;;;;;;;;;5024232;28;20048;-69
2022/06/02 02:39:11;;;;;;;16.73;10.38;;;;;;;;;;5027110;28;20060;-69
2022/06/02 02:41:46;;;;;;;21.17;11.07;;;;;;;;;;5023901;28;20037;-69
2022/06/02 02:44:15;;;;;;;23.05;10.50;;;;;;;;;;5022518;28;20047;-69
2022/06/02 02:46:59;;;;;;;17.83;10.63;;;;;;;;;;5018895;28;20038;-69
2022/06/02 02:49:30;;;;;;;19.13;10.70;;;;;;;;;;5028097;28;20033;-70
2022/06/02 02:51:55;;;;;;;20.67;10.63;;;;;;;;;;5027715;28;20037;-70
2022/06/02 02:54:23;;;;;;;19.33;10.17;;;;;;;;;;5027341;28;20084;-69
2022/06/02 02:57:07;;;;;;;20.48;11.18;;;;;;;;;;5027116;28;20408;-69
2022/06/02 02:59:39;;;;;;;20.20;10.80;;;;;;;;;;5026100;28;20053;-67
2022/06/02 03:02:13;;;;;;;24.50;11.07;;;;;;;;;;5025588;28;20381;-67
2022/06/02 03:04:47;;;;;;;21.45;11.07;;;;;;;;;;5025064;28;20029;-67
2022/06/02 03:07:12;;;;;;;18.92;10.38;;;;;;;;;;5063627;28;20449;-68
2022/06/02 03:09:42;;;;;;;25.57;11.23;;;;;;;;;;5084794;28;20050;-68
2022/06/02 03:12:09;;;;;;;20.80;10.32;;;;;;;;;;5087139;28;20284;-68
2022/06/02 03:14:34;;;;;;;20.52;11.27;;;;;;;;;;5089920;28;20124;-69
2022/06/02 03:17:18;;;;;;;19.80;9.80;;;;;;;;;;5088930;28;20106;-67
2022/06/02 03:19:58;;;;;;;18.95;10.48;;;;;;;;;;5088591;28;20144;-68
2022/06/02 03:22:45;;;;;;;20.67;10.30;;;;;;;;;;5088472;28;20839;-68
2022/06/02 03:25:22;;;;;;;19.65;10.77;;;;;;;;;;5087992;28;20035;-68
2022/06/02 03:27:56;;;;;;;26.65;11.40;;;;;;;;;;5083697;28;20036;-68
2022/06/02 03:30:23;;;;;;;25.23;11.85;;;;;;;;;;5081205;28;20450;-67
2022/06/02 03:32:51;;;;;;;18.35;10.95;;;;;;;;;;5087189;28;20036;-68
2022/06/02 03:35:35;;;;;;;19.60;10.98;;;;;;;;;;5087007;28;20044;-67
2022/06/02 03:38:00;;;;;;;20.45;10.00;;;;;;;;;;5095385;28;20074;-73
2022/06/02 03:40:25;;;;;;;21.70;10.70;;;;;;;;;;5108539;28;20067;-73
2022/06/02 03:43:06;;;;;;;17.07;10.03;;;;;;;;;;5110621;28;20286;-73
2022/06/02 03:45:51;;;;;;;16.98;10.55;;;;;;;16.36;nan;100485.03;5109850;28;20363;-73
2022/06/02 03:48:16;;;;;;;20.88;10.18;;;;;;;;;;5113937;28;20027;-74
2022/06/02 03:51:01;;;;;;;17.77;9.80;;;;;;;;;;5112711;28;20046;-73
2022/06/02 03:53:49;;;;;;;21.98;10.70;;;;;;;;;;5112381;28;20122;-73
2022/06/02 03:56:35;;;;;;;17.85;10.18;;;;;;;;;;5029311;28;20037;-73
2022/06/02 03:59:03;;;;;;;21.85;10.70;;;;;;;;;;5001264;28;20037;-72
2022/06/02 04:01:35;;;;;;;26.80;10.30;;;;;;;;;;5030464;28;20160;-72
2022/06/02 04:04:18;;;;;;;16.70;10.23;;;;;;;;;;5034046;28;20482;-72
2022/06/02 04:06:56;;;;;;;17.50;10.52;;;;;;;;;;5032808;28;20124;-71
2022/06/02 04:09:30;;;;;;;16.65;9.98;;;;;;;;;;5032189;28;20501;-71
2022/06/02 04:14:45;;;;;;;20.65;8.85;;;;;;;;;;5029023;28;20045;-71
2022/06/02 04:17:10;;;;;;;22.23;9.73;;;;;;;;;;5012304;28;20029;-71
2022/06/02 04:22:32;;;;;;;21.98;9.75;;;;;;;;;;5031148;28;20128;-72
2022/06/02 04:25:00;;;;;;;22.90;9.85;;;;;;;;;;5012780;28;20112;-71
2022/06/02 04:27:28;;;;;;;16.95;10.18;;;;;;;;;;5010364;28;20034;-71
2022/06/02 04:30:11;;;;;;;20.98;10.20;;;;;;;;;;5030018;28;20533;-72
2022/06/02 04:32:40;;;;;;;14.10;9.05;;;;;;;;;;5050870;28;20050;-71
2022/06/02 04:35:08;;;;;;;16.65;10.15;;;;;;;;;;5092955;28;20032;-72
2022/06/02 04:37:34;;;;;;;16.25;9.27;;;;;;;;;;5111713;28;20047;-72
2022/06/02 04:40:18;;;;;;;13.87;9.13;;;;;;;;;;5111508;28;20119;-72
2022/06/02 04:43:05;;;;;;;15.80;8.98;;;;;;;17.74;nan;100512.78;5090281;28;20039;-72
2022/06/02 04:45:49;;;;;;;15.40;8.77;;;;;;;;;;5094188;28;20039;-72
2022/06/02 04:48:23;;;;;;;19.85;8.57;;;;;;;;;;5106768;28;20100;-73
2022/06/02 04:51:04;;;;;;;18.33;8.40;;;;;;;;;;5094083;28;20536;-73
2022/06/02 04:53:49;;;;;;;16.05;8.52;;;;;;;;;;5088798;28;20047;-72
2022/06/02 04:56:33;;;;;;;20.10;8.98;;;;;;;;;;5067183;28;20040;-69
2022/06/02 04:59:07;;;;;;;13.93;8.52;;;;;;;;;;5108626;28;20035;-69
2022/06/02 05:01:47;;;;;;;18.63;8.75;;;;;;;18.26;nan;100520.38;5109972;28;20032;-70
2022/06/02 05:04:51;;;;;;;23.00;8.38;;;;;;;18.35;nan;100522.50;5109533;28;20081;-68
2022/06/02 05:07:35;;;;;;;19.83;8.75;;;;;;;18.44;nan;100528.88;5106117;28;20039;-68
2022/06/02 05:10:12;;;;;;;15.07;8.20;;;;;;;18.52;nan;100535.50;5109701;28;20065;-69
2022/06/02 05:13:05;;;;;;;17.00;8.05;;;;;;;18.59;nan;100523.44;5112074;28;20515;-70
2022/06/02 05:16:23;;;;;;;20.85;8.43;;;;;;;18.71;nan;100510.56;5109070;28;20046;-69
2022/06/02 05:19:10;;;;;;;19.52;8.23;;;;;;;18.78;nan;100518.28;5066071;28;20036;-69
2022/06/02 05:21:54;;;;;;;22.20;8.55;;;;;;;18.89;nan;100529.69;5108390;28;20041;-70
2022/06/02 05:24:34;;;;;;;13.55;7.78;;;;;;;18.94;nan;100508.31;5109971;28;20019;-69
2022/06/02 05:27:24;;;;;;;13.35;7.30;;;;;;;19.05;nan;100528.50;5086845;28;20136;-70
2022/06/02 05:30:14;;;;;;;15.98;7.95;;;;;;;19.14;nan;100523.38;5105229;28;20039;-70
2022/06/02 05:32:59;;;;;;;16.20;7.55;;;;;;;19.20;nan;100479.56;5091128;28;20044;-70
2022/06/02 05:35:36;;;;;;;19.00;8.40;;;;;;;19.35;nan;100526.69;5093357;28;20070;-68
2022/06/02 05:38:27;;;;;;;14.25;7.15;;;;;;;19.44;nan;100527.69;5110280;28;20053;-69
2022/06/02 05:41:05;;;;;;;12.93;7.22;;;;;;;19.56;nan;100521.94;5096050;28;20115;-69
2022/06/02 05:43:41;;;;;;;14.70;7.32;;;;;;;19.67;nan;100512.75;5109618;28;20489;-68
2022/06/02 05:46:32;;;;;;;17.85;7.30;;;;;;;19.85;nan;100538.00;5108754;28;20035;-68
2022/06/02 05:49:11;;;;;;;16.27;7.20;;;;;;;19.97;nan;100532.28;5107794;28;20623;-68
2022/06/02 05:51:40;;;;;;;;;;;;;;;20.03;nan;100525.78;5077849;28;20115;-68
2022/06/02 05:54:31;;;;;;;11.68;7.55;;;;;;;20.08;nan;100512.34;5087926;28;19930;-69
2022/06/02 05:57:03;;;;;;;17.17;7.57;;;;;;;20.24;nan;100529.00;5105481;28;20036;-69
2022/06/02 05:59:43;;;;;;;17.17;7.75;;;;;;;20.31;nan;100521.44;5107652;28;20059;-68
2022/06/02 06:02:33;;;;;;;15.35;7.80;;;;;;;20.41;nan;100517.81;5090543;28;20041;-67
2022/06/02 06:05:24;;;;;;;13.80;7.20;;;;;;;20.54;nan;100573.31;5110012;28;20118;-68
2022/06/02 06:08:22;;;;;;;18.75;7.63;;;;;;;20.67;nan;100566.47;5105637;28;20035;-69
2022/06/02 06:11:00;;;;;;;16.10;8.30;;;;;;;20.68;nan;100553.88;5108339;28;20401;-69
2022/06/02 06:13:43;;;;;;;10.70;6.60;;;;;;;20.81;nan;100569.22;5107736;28;20180;-68
2022/06/02 06:16:14;;;;;;;17.17;7.10;;;;;;;20.87;nan;100578.78;5104682;28;20481;-67
2022/06/02 06:18:55;;;;;;;14.52;7.55;;;;;;;21.00;nan;100572.69;5107862;28;20501;-68
2022/06/02 06:21:38;;;;;;;10.60;7.03;;;;;;;21.09;nan;100570.16;5110199;28;20043;-67
2022/06/02 06:24:41;;;;;;;14.75;7.07;;;;;;;21.26;nan;100580.31;5109594;28;20350;-67
2022/06/02 06:27:25;;;;;;;13.63;7.28;;;;;;;21.37;nan;100579.09;5106757;28;20028;-66
2022/06/02 06:29:53;;;;;;;15.63;7.20;;;;;;;21.50;nan;100579.44;5109451;28;20048;-66
2022/06/02 06:32:31;;;;;;;13.95;7.57;;;;;;;21.59;nan;100577.69;5109975;28;20476;-67
2022/06/02 06:35:15;;;;;;;18.87;7.03;;;;;;;21.67;nan;100583.19;5109661;28;20122;-67
2022/06/02 06:37:59;;;;;;;16.75;7.35;;;;;;;21.80;nan;100586.97;5105464;28;20120;-67
2022/06/02 06:40:42;;;;;;;11.13;7.05;;;;;;;21.91;nan;100589.47;5105293;28;20036;-67
2022/06/02 06:43:21;;;;;;;15.70;6.63;;;;;;;21.97;nan;100590.97;5110262;28;20036;-67
2022/06/02 06:45:58;;;;;;;13.10;7.07;;;;;;;21.95;nan;100591.25;5103823;28;20453;-68
2022/06/02 06:48:36;;;;;;;13.52;6.75;;;;;;;21.97;nan;100588.28;5109019;28;20036;-67
2022/06/02 06:51:23;;;;;;;13.40;6.47;;;;;;;21.97;nan;100566.84;5107573;28;20035;-68
2022/06/02 06:54:15;;;;;;;11.98;6.15;;;;;;;22.17;nan;100592.47;5102138;28;20120;-67
2022/06/02 06:56:53;;;;;;;10.98;6.50;;;;;;;22.25;nan;100600.66;5106833;28;20036;-68
2022/06/02 07:00:06;;;;;;;14.85;6.45;;;;;;;22.30;nan;100597.84;5104557;28;20035;-68
2022/06/02 07:02:54;;;;;;;13.50;7.10;;;;;;;22.41;nan;100608.38;5105381;28;20027;-67
2022/06/02 07:05:46;;;;;;;22.42;6.75;;;;;;;22.46;nan;100594.88;5106145;28;20139;-68
2022/06/02 07:08:45;;;;;;;12.88;6.28;;;;;;;22.63;nan;100611.16;5105876;28;20064;-69
2022/06/02 07:14:49;;;;;;;11.85;6.53;;;;;;;22.98;nan;100624.09;5108637;28;20039;-67
2022/06/02 07:17:32;;;;;;;15.68;7.03;;;;;;;23.09;nan;100622.81;5086226;28;20409;-67
2022/06/02 07:20:07;;;;;;;10.23;6.50;;;;;;;23.19;nan;100627.16;5086786;28;20031;-67
2022/06/02 07:22:39;;;;;;;14.55;7.15;;;;;;;23.23;nan;100636.22;5108544;28;20119;-67
2022/06/02 07:25:21;;;;;;;12.27;7.80;;;;;;;23.13;nan;100623.81;5092873;28;20503;-67
2022/06/02 07:28:15;;;;;;;12.85;6.07;;;;;;;23.20;nan;100636.81;5103757;28;20031;-68
2022/06/02 07:31:02;;;;;;;11.57;6.60;;;;;;;23.29;nan;100649.22;5110969;28;20039;-68
2022/06/02 07:33:50;;;;;;;15.43;6.53;;;;;;;23.43;nan;100643.78;5090025;28;20089;-67
2022/06/02 07:36:40;;;;;;;13.32;6.05;;;;;;;23.60;nan;100642.31;5084325;28;20039;-67
2022/06/02 07:39:24;;;;;;;11.23;6.25;;;;;;;23.69;nan;100640.50;5106065;28;20040;-67
2022/06/02 07:42:03;;;;;;;11.23;6.18;;;;;;;23.72;nan;100646.03;5110419;28;20643;-67
2022/06/02 07:44:37;;;;;;;;;;;;;;;23.82;nan;100644.22;5111528;28;20046;-68
2022/06/02 07:47:21;;;;;;;12.10;6.07;;;;;;;23.92;nan;100647.47;5112908;28;19972;-68
2022/06/02 07:49:54;;;;;;;17.25;6.40;;;;;;;24.05;nan;100650.38;5112429;28;20047;-67
2022/06/02 07:52:50;;;;;;;13.88;7.05;;;;;;;24.31;nan;100656.66;5094381;28;20389;-69
2022/06/02 07:55:45;;;;;;;14.35;6.30;;;;;;;24.45;nan;100655.75;5025254;28;20038;-66
2022/06/02 07:58:21;;;;;;;13.57;6.45;;;;;;;24.57;nan;100666.75;4987933;28;20046;-66
2022/06/02 08:01:14;;;;;;;18.58;7.10;;;;;;;24.66;nan;100666.75;5026344;28;20697;-66
2022/06/02 08:03:57;;;;;;;18.20;8.23;;;;;;;24.80;nan;100670.09;4977220;28;20083;-68
2022/06/02 08:06:29;;;;;;;13.43;8.38;;;;;;;24.79;nan;100655.84;4981400;28;20086;-67
2022/06/02 08:09:27;;;;;;;21.98;9.90;;;;;;;24.99;nan;100667.13;4972463;28;20042;-67
2022/06/02 08:12:10;;;;;;;20.55;10.32;;;;;;;25.03;nan;100673.47;4972200;28;20574;-67
2022/06/02 08:14:57;;;;;;;16.08;8.98;;;;;;;25.09;nan;100682.19;4971564;28;20519;-66
2022/06/02 08:17:30;;;;;;;17.42;9.18;;;;;;;25.01;nan;100684.56;4968084;28;20046;-67
2022/06/02 08:20:33;;;;;;;17.88;9.02;;;;;;;25.03;nan;100693.13;4971994;28;20046;-68
2022/06/02 08:23:15;;;;;;;14.73;9.18;;;;;;;24.98;nan;100684.41;4966748;28;20542;-68
2022/06/02 08:25:58;;;;;;;16.92;9.55;;;;;;;25.03;nan;100693.13;4970357;28;20050;-67
2022/06/02 08:28:35;;;;;;;19.35;9.38;;;;;;;25.12;nan;100697.75;4969899;28;20035;-69
2022/06/02 08:31:19;;;;;;;18.23;9.35;;;;;;;25.19;nan;100692.72;4970164;28;20554;-67
2022/06/02 08:34:27;;;;;;;16.67;8.80;;;;;;;25.21;nan;100704.78;5007757;28;20048;-68
2022/06/02 08:37:23;;;;;;;16.65;9.25;;;;;;;25.24;nan;100698.75;4995854;28;20048;-68
2022/06/02 08:40:08;;;;;;;18.42;10.20;;;;;;;25.31;nan;100695.56;5001964;28;20504;-67
2022/06/02 08:43:00;;;;;;;16.73;12.20;;;;;;;25.22;nan;100679.38;5106302;28;20131;-66
2022/06/02 08:46:05;;;;;;;18.77;10.77;;;;;;;25.34;nan;100694.16;5107662;28;20367;-70
2022/06/02 08:48:45;;;;;;;19.13;11.70;;;;;;;25.41;nan;100697.94;5084037;28;20027;-70
2022/06/02 08:51:45;;;;;;;16.00;9.68;;;;;;;25.49;nan;100690.97;5110872;28;20393;-70
2022/06/02 08:54:10;;;;;;;19.83;12.65;;;;;;;25.60;nan;100684.13;5110190;28;20035;-71
2022/06/02 08:57:00;;;;;;;16.00;11.80;;;;;;;25.54;nan;100685.41;5091667;28;20041;-71
2022/06/02 08:59:55;;;;;;;20.85;12.77;;;;;;;25.59;nan;100682.53;5104505;28;20031;-71
2022/06/02 09:02:58;;;;;;;18.63;10.95;;;;;;;25.56;nan;100680.47;5081950;28;20070;-72
2022/06/02 09:05:41;;;;;;;19.85;12.52;;;;;;;25.62;nan;100684.63;5107660;28;20497;-72
2022/06/02 09:09:02;;;;;;;18.60;11.48;;;;;;;25.68;nan;100679.84;5112528;28;20362;-71
2022/06/02 09:11:33;;;;;;;14.43;10.27;;;;;;;25.75;nan;100685.53;5006733;28;20042;-70
2022/06/02 09:14:26;;;;;;;21.35;11.57;;;;;;;25.79;nan;100685.69;4991154;28;20050;-70
2022/06/02 09:17:07;;;;;;;19.35;12.27;;;;;;;25.86;nan;100684.13;5001478;28;20053;-71
2022/06/02 09:19:48;;;;;;;21.20;11.23;;;;;;;25.81;nan;100686.16;5009636;28;20044;-71
2022/06/02 09:22:34;;;;;;;18.63;10.98;;;;;;;25.85;nan;100689.81;5008217;28;20631;-71
2022/06/02 09:25:28;;;;;;;20.35;10.85;;;;;;;25.80;nan;100684.56;5008549;28;20063;-69
2022/06/02 09:28:02;;;;;;;17.50;11.07;;;;;;;25.84;nan;100686.31;5006152;28;20065;-71
2022/06/02 09:30:49;;;;;;;25.08;11.10;;;;;;;25.77;nan;100690.63;5007337;28;20543;-71
2022/06/02 09:33:43;;;;;;;19.98;10.52;;;;;;;25.81;nan;100694.25;5008863;28;20112;-72
2022/06/02 09:36:26;;;;;;;18.75;11.05;;;;;;;25.82;nan;100693.94;5008424;28;20041;-68
2022/06/02 09:39:21;;;;;;;16.55;10.35;;;;;;;25.83;nan;100675.84;5004044;28;20061;-68
2022/06/02 09:41:52;;;;;;;17.80;10.15;;;;;;;26.03;nan;100699.47;5006548;28;20456;-67
2022/06/02 09:44:27;;;;;;;17.45;9.40;;;;;;;26.14;nan;100702.59;5008114;28;20523;-69
2022/06/02 09:47:17;;;;;;;13.20;8.90;;;;;;;26.21;nan;100697.50;5040136;28;20497;-68
2022/06/02 09:50:11;;;;;;;16.98;9.85;;;;;;;26.22;nan;100703.72;5089838;28;20047;-71
2022/06/02 09:53:07;;;;;;;14.05;9.38;;;;;;;26.29;nan;100695.88;5085440;28;20024;-69
2022/06/02 09:56:04;;;;;;;19.17;8.75;;;;;;;26.37;nan;100694.28;5088063;28;20046;-70
2022/06/02 09:58:47;;;;;;;16.55;10.35;;;;;;;26.46;nan;100701.22;5068637;28;20514;-69
2022/06/02 10:01:37;;;;;;;17.77;9.30;;;;;;;26.52;nan;100688.31;5085174;28;20051;-70
2022/06/02 10:04:15;;;;;;;15.75;9.35;;;;;;;26.56;nan;100696.63;5089240;28;20031;-68
2022/06/02 10:07:15;;;;;;;16.77;9.63;;;;;;;26.61;nan;100691.03;5088887;28;20070;-70
2022/06/02 10:10:04;;;;;;;14.45;9.63;;;;;;;26.60;nan;100687.53;5104565;28;20035;-68
2022/06/02 10:12:54;;;;;;;15.43;9.20;;;;;;;26.64;nan;100687.66;5080210;28;20071;-66
2022/06/02 10:15:48;;;;;;;16.02;9.55;;;;;;;26.66;nan;100680.81;5089131;28;20036;-67
2022/06/02 10:18:30;;;;;;;15.43;9.27;;;;;;;26.65;nan;100675.72;5090791;28;20039;-68
2022/06/02 10:21:16;;;;;;;16.45;9.20;;;;;;;26.69;nan;100684.78;5077654;28;20039;-67
2022/06/02 10:24:10;;;;;;;19.25;9.20;;;;;;;26.63;nan;100661.78;5084461;28;20031;-66
2022/06/02 10:27:01;;;;;;;13.60;8.43;;;;;;;26.77;nan;100675.84;5086108;28;20035;-67
2022/06/02 10:29:35;;;;;;;14.32;8.75;;;;;;;26.73;nan;100672.97;5088300;28;20032;-67
2022/06/02 10:32:07;;;;;;;17.45;9.13;;;;;;;26.78;nan;100682.81;5087663;28;20123;-66
2022/06/02 10:35:07;;;;;;;12.70;7.40;;;;;;;26.82;nan;100678.34;5088583;28;20055;-67
2022/06/02 10:38:10;;;;;;;13.73;7.75;;;;;;;26.79;nan;100673.56;5080973;28;20056;-69
2022/06/02 10:40:54;;;;;;;19.80;9.60;;;;;;;26.80;nan;100675.19;5001008;28;20073;-68
2022/06/02 10:43:45;;;;;;;20.75;8.55;;;;;;;26.85;nan;100677.69;5004209;28;20050;-69
2022/06/02 10:46:10;;;;;;;15.70;7.43;;;;;;;26.91;nan;100670.16;5001268;28;20030;-68
2022/06/02 10:48:57;;;;;;;11.13;7.65;;;;;;;26.97;nan;100673.47;5001101;28;20046;-68
2022/06/02 10:51:37;;;;;;;14.13;7.25;;;;;;;27.00;nan;100664.69;4985453;28;20038;-68
2022/06/02 10:54:40;;;;;;;13.98;8.23;;;;;;;27.05;nan;100659.88;4998250;28;20069;-67
2022/06/02 10:57:45;;;;;;;14.38;7.93;;;;;;;27.06;nan;100660.69;5001451;28;20531;-68
2022/06/02 11:00:30;;;;;;;21.40;9.10;;;;;;;27.13;nan;100661.75;5001686;28;20109;-69
2022/06/02 11:03:30;;;;;;;15.75;8.85;;;;;;;27.25;nan;100658.34;4996866;28;20100;-67
2022/06/02 11:06:04;;;;;;;13.73;7.72;;;;;;;27.29;nan;100656.53;5000629;28;20041;-68
2022/06/02 11:08:54;;;;;;;14.85;7.78;;;;;;;27.33;nan;100659.38;5004193;28;20419;-68
2022/06/02 11:11:38;;;;;;;11.27;7.22;;;;;;;27.46;nan;100660.22;4995726;28;20231;-68
2022/06/02 11:14:25;;;;;;;14.00;7.90;;;;;;;27.58;nan;100652.94;5029564;28;20038;-68
2022/06/02 11:17:09;;;;;;;14.15;7.70;;;;;;;27.75;nan;100649.25;5105893;28;20031;-69
2022/06/02 11:20:01;;;;;;;14.90;7.55;;;;;;;27.90;nan;100650.56;5108219;28;20032;-69
2022/06/02 11:23:04;;;;;;;12.85;7.30;;;;;;;28.02;nan;100652.50;5081331;28;20468;-69
2022/06/02 11:26:12;;;;;;;16.17;8.57;;;;;;;28.11;nan;100657.78;5109940;28;20062;-71
2022/06/02 11:29:19;;;;;;;15.85;7.38;;;;;;;28.14;nan;100649.78;5102066;28;20031;-69
2022/06/02 11:32:06;;;;;;;10.52;7.15;;;;;;;28.07;nan;100660.41;5001118;28;20141;-69
2022/06/02 11:35:02;;;;;;;10.43;6.88;;;;;;;28.12;nan;100662.88;4994422;28;20042;-68
2022/06/02 11:37:58;;;;;;;15.05;6.28;;;;;;;28.24;nan;100650.47;4998532;28;20555;-67
2022/06/02 11:40:33;;;;;;;13.35;8.10;;;;;;;28.35;nan;100648.88;5003715;28;20117;-68
2022/06/02 11:43:14;;;;;;;11.95;6.65;;;;;;;28.44;nan;100646.84;4998458;28;20037;-68
2022/06/02 11:46:07;;;;;;;12.35;6.40;;;;;;;28.53;nan;100650.25;4997619;28;20168;-67
2022/06/02 11:49:00;;;;;;;11.35;6.75;;;;;;;28.64;nan;100645.19;4999807;28;20035;-68
2022/06/02 11:52:11;;;;;;;9.93;6.90;;;;;;;28.73;nan;100645.84;4999448;28;20117;-67
2022/06/02 11:55:09;;;;;;;11.13;6.50;;;;;;;28.82;nan;100640.28;4991874;28;20038;-67
2022/06/02 11:57:47;;;;;;;12.73;6.87;;;;;;;28.91;nan;100638.22;5003055;28;20129;-67
2022/06/02 12:00:52;;;;;;;10.57;6.63;;;;;;;28.94;nan;100631.31;4984834;28;20117;-67
2022/06/02 12:03:52;;;;;;;9.77;6.75;;;;;;;29.09;nan;100646.09;4997603;28;20095;-68
2022/06/02 12:06:17;;;;;;;11.15;7.00;;;;;;;28.99;nan;100641.91;4993880;28;20045;-69
2022/06/02 12:09:01;;;;;;;11.27;6.32;;;;;;;29.02;nan;100643.94;5107494;28;20135;-69
2022/06/02 12:11:54;;;;;;;11.43;6.47;;;;;;;29.07;nan;100638.31;5108570;28;20036;-70
2022/06/02 12:14:58;;;;;;;10.48;6.68;;;;;;;29.19;nan;100643.69;5111992;28;20024;-70
2022/06/02 12:17:43;;;;;;;11.65;6.68;;;;;;;29.16;nan;100640.88;5111667;28;20102;-70
2022/06/02 12:20:13;;;;;;;11.73;8.45;;;;;;;29.36;nan;100641.81;5110846;28;20137;-69
2022/06/02 12:23:17;;;;;;;10.80;8.23;;;;;;;29.52;nan;100649.97;5107988;28;20664;-69
2022/06/02 12:26:04;;;;;;;14.45;8.73;;;;;;;29.62;nan;100641.34;5111137;28;20043;-68
2022/06/02 12:28:50;;;;;;;13.73;7.97;;;;;;;29.63;nan;100638.28;5108325;28;20035;-69
2022/06/02 12:31:41;;;;;;;11.75;8.10;;;;;;;29.52;nan;100628.28;5112625;28;20058;-69
2022/06/02 12:34:35;;;;;;;10.27;7.53;;;;;;;29.64;nan;100634.44;5111331;28;20054;-68
2022/06/02 12:37:13;;;;;;;13.15;7.50;;;;;;;29.60;nan;100644.41;5110860;28;20071;-67
2022/06/02 12:39:57;;;;;;;12.98;7.07;;;;;;;29.52;nan;100641.84;5090440;28;20043;-65
2022/06/02 12:42:58;;;;;;;12.95;7.35;;;;;;;29.65;nan;100637.94;5107572;28;20020;-68
2022/06/02 12:45:58;;;;;;;12.15;7.32;;;;;;;29.74;nan;100635.06;5003795;28;20045;-70
2022/06/02 12:48:57;;;;;;;12.38;6.82;;;;;;;29.83;nan;100632.97;5005623;28;20037;-71
2022/06/02 12:51:38;;;;;;;9.02;7.10;;;;;;;29.83;nan;100630.25;5004933;28;20114;-70
2022/06/02 12:54:22;;;;;;;14.13;7.97;;;;;;;29.89;nan;100632.38;5003747;28;20611;-68
2022/06/02 12:57:32;;;;;;;17.33;8.45;;;;;;;29.61;nan;100601.78;5004156;28;20034;-66
2022/06/02 12:59:58;;;;;;;10.38;6.85;;;;;;;29.94;nan;100634.03;5001527;28;20042;-67
2022/06/02 13:02:32;;;;;;;10.23;7.28;;;;;;;30.04;nan;100636.22;4982858;28;20076;-69
2022/06/02 13:05:19;;;;;;;7.97;6.30;;;;;;;30.08;nan;100639.81;4997430;28;20035;-67
2022/06/02 13:08:15;;;;;;;8.52;6.25;;;;;;;30.02;nan;100641.22;5008420;28;20034;-71
2022/06/02 13:11:17;;;;;;;11.20;7.03;;;;;;;29.77;nan;100640.59;5005079;28;20034;-69
2022/06/02 13:14:04;;;;;;;8.43;6.35;;;;;;;29.76;nan;100643.66;5006707;28;20093;-69
2022/06/02 13:16:48;;;;;;;13.85;7.43;;;;;;;29.62;nan;100644.06;4996089;28;20116;-72
2022/06/02 13:20:02;;;;;;;9.98;7.20;;;;;;;29.57;nan;100641.59;5046118;28;20036;-71
2022/06/02 13:22:49;;;;;;;12.50;7.25;;;;;;;29.54;nan;100642.28;5002948;28;20487;-70
2022/06/02 13:25:21;;;;;;;8.75;7.05;;;;;;;29.60;nan;100644.41;5006912;28;20030;-70
2022/06/02 13:28:24;;;;;;;11.52;7.22;;;;;;;29.63;nan;100649.13;5001293;28;20125;-72
2022/06/02 13:31:10;;;;;;;10.18;7.30;;;;;;;29.34;nan;100650.31;5005330;28;20041;-70
2022/06/02 13:33:44;;;;;;;14.23;7.45;;;;;;;29.19;nan;100653.78;5010386;28;20050;-71
2022/06/02 13:36:51;;;;;;;12.35;7.43;;;;;;;29.24;nan;100653.53;5009169;28;20037;-72
2022/06/02 13:39:31;;;;;;;13.18;7.50;;;;;;;29.18;nan;100649.47;4931544;29;20447;-72
2022/06/02 13:42:16;;;;;;;16.63;7.85;;;;;;;29.34;nan;100646.81;4931905;29;20494;-71
2022/06/02 13:45:00;;;;;;;10.98;7.70;;;;;;;29.37;nan;100654.25;4929488;29;20060;-72